Time;durP1;ratioP1;P1;durP2;ratioP2;P2;SDS_P1;SDS_P2;PMS_P1;PMS_P2;Temp;Humidity;BMP_temperature;BMP_pressure;BME280_temperature;BME280_humidity;BME280_pressure;Samples;Min_cycle;Max_cycle;Signal;HPM_P1;HPM_P2
2023/01/07 00:02:29;;;;;;;76.30;31.05;;;8.10;99.90;;;;;;5112434;28;20056;-81
2023/01/07 00:05:16;;;;;;;87.60;33.83;;;8.20;99.90;;;;;;5080890;28;20062;-81
2023/01/07 00:08:02;;;;;;;81.80;33.20;;;8.20;99.90;;;;;;5112491;28;20055;-82
2023/01/07 00:10:48;;;;;;;77.75;32.95;;;8.30;99.90;;;;;;5111044;28;20043;-81
2023/01/07 00:13:35;;;;;;;89.32;35.50;;;8.40;99.90;;;;;;5098450;28;20043;-82
2023/01/07 00:16:24;;;;;;;90.15;34.42;;;8.40;99.90;;;;;;5094401;28;20090;-79
2023/01/07 00:19:13;;;;;;;94.07;36.30;;;8.50;99.90;;;;;;5094663;28;20059;-81
2023/01/07 00:21:59;;;;;;;94.05;36.97;;;8.60;99.90;;;;;;5114764;28;20106;-81
2023/01/07 00:24:46;;;;;;;87.90;35.53;;;8.70;99.90;;;;;;5114522;28;20048;-80
2023/01/07 00:27:32;;;;;;;87.13;36.00;;;8.80;99.90;;;;;;5117399;28;20058;-79
2023/01/07 00:30:18;;;;;;;81.25;36.97;;;8.90;99.90;;;;;;5121097;28;20043;-79
2023/01/07 00:33:05;;;;;;;88.10;37.75;;;9.00;99.90;;;;;;5132046;27;20053;-82
2023/01/07 00:36:07;;;;;;;93.60;38.67;;;9.10;99.90;;;;;;5133815;27;20053;-81
2023/01/07 00:39:03;;;;;;;93.93;37.25;;;9.10;99.90;;;;;;5119532;27;20043;-81
2023/01/07 00:44:54;;;;;;;81.68;34.85;;;9.20;99.90;;;;;;5133631;27;20047;-78
2023/01/07 00:47:40;;;;;;;81.47;32.40;;;9.30;99.90;;;;;;5131224;27;20043;-86
2023/01/07 00:50:32;;;;;;;85.68;33.95;;;9.30;99.90;;;;;;5113120;27;20059;-86
2023/01/07 00:53:19;;;;;;;91.07;34.58;;;9.30;99.90;;;;;;5132537;27;20050;-84
2023/01/07 00:56:05;;;;;;;88.03;35.00;;;9.40;99.90;;;;;;5133508;27;20053;-83
2023/01/07 00:58:52;;;;;;;80.47;32.90;;;9.40;99.90;;;;;;5119015;27;20108;-85
2023/01/07 01:01:38;;;;;;;78.50;31.45;;;9.50;99.90;;;;;;5113158;27;20393;-83
2023/01/07 01:04:24;;;;;;;77.97;31.35;;;9.50;99.90;;;;;;5112783;27;20055;-85
2023/01/07 01:07:10;;;;;;;88.40;31.70;;;9.50;99.90;;;;;;5130314;27;20148;-85
2023/01/07 01:09:56;;;;;;;72.55;30.17;;;9.50;99.90;;;;;;5130831;27;20048;-83
2023/01/07 01:12:43;;;;;;;66.78;28.38;;;9.60;99.90;;;;;;5130740;27;20054;-84
2023/01/07 01:15:29;;;;;;;72.57;29.20;;;9.60;99.90;;;;;;5130282;27;20039;-81
2023/01/07 01:18:16;;;;;;;68.53;28.13;;;9.60;99.90;;;;;;5130254;27;20091;-84
2023/01/07 01:21:05;;;;;;;63.75;27.83;;;9.70;99.90;;;;;;5130146;27;20151;-82
2023/01/07 01:23:51;;;;;;;59.40;24.73;;;9.70;99.90;;;;;;5129819;27;20050;-84
2023/01/07 01:26:37;;;;;;;53.80;24.92;;;9.70;99.90;;;;;;5130843;27;20072;-84
2023/01/07 01:29:23;;;;;;;51.30;24.10;;;9.70;99.90;;;;;;5130466;27;20134;-82
2023/01/07 01:32:10;;;;;;;51.60;23.13;;;9.80;99.90;;;;;;5114906;28;20055;-84
2023/01/07 01:34:56;;;;;;;54.97;24.95;;;9.90;99.90;;;;;;5113060;28;20086;-80
2023/01/07 01:37:43;;;;;;;50.72;24.17;;;9.90;99.90;;;;;;5138342;28;20107;-84
2023/01/07 01:40:29;;;;;;;44.80;23.30;;;9.90;99.90;;;;;;5118616;28;20050;-83
2023/01/07 01:43:34;;;;;;;42.65;23.40;;;10.00;99.90;;;;;;5111647;28;20089;-81
2023/01/07 01:46:33;;;;;;;43.55;22.63;;;10.00;99.90;;;;;;5129952;28;20544;-82
2023/01/07 01:49:22;;;;;;;41.30;22.85;;;10.10;99.90;;;;;;5129978;28;20058;-82
2023/01/07 01:52:12;;;;;;;38.55;22.52;;;10.10;99.90;;;;;;5129525;28;20051;-81
2023/01/07 01:55:01;;;;;;;39.95;22.52;;;10.10;99.90;;;;;;5130663;28;20410;-81
2023/01/07 01:57:51;;;;;;;42.30;23.02;;;10.10;99.90;;;;;;5112200;28;20059;-82
2023/01/07 02:00:37;;;;;;;41.85;23.70;;;10.20;99.90;;;;;;5097157;28;20104;-86
2023/01/07 02:03:26;;;;;;;45.05;24.95;;;10.20;99.90;;;;;;5114023;28;20043;-85
2023/01/07 02:06:20;;;;;;;41.80;23.55;;;10.20;99.90;;;;;;5112053;28;20051;-81
2023/01/07 02:09:06;;;;;;;36.72;22.80;;;10.20;99.90;;;;;;5129451;28;20054;-82
2023/01/07 02:12:00;;;;;;;41.10;23.63;;;10.30;99.90;;;;;;5128719;28;20091;-82
2023/01/07 02:14:49;;;;;;;38.17;22.95;;;10.30;99.90;;;;;;5129786;28;20047;-84
2023/01/07 02:17:38;;;;;;;37.15;22.63;;;10.30;99.90;;;;;;5112201;28;20043;-79
2023/01/07 02:20:48;;;;;;;33.30;21.85;;;10.30;99.90;;;;;;5130238;28;20088;-79
2023/01/07 02:23:55;;;;;;;35.03;22.98;;;10.40;99.90;;;;;;5129312;28;20043;-83
2023/01/07 02:26:51;;;;;;;34.25;23.48;;;10.30;99.90;;;;;;5110658;28;20818;-78
2023/01/07 02:29:37;;;;;;;;;;;10.30;99.90;;;;;;5135799;28;20074;-80
2023/01/07 02:32:40;;;;;;;29.55;19.35;;;10.40;99.90;;;;;;5135697;27;19919;-78
2023/01/07 02:35:48;;;;;;;28.38;20.88;;;10.40;99.90;;;;;;5112340;28;20055;-81
2023/01/07 02:39:07;;;;;;;29.17;18.67;;;10.40;99.90;;;;;;5098104;27;20055;-80
2023/01/07 02:42:03;;;;;;;29.77;20.23;;;10.40;99.90;;;;;;5119168;27;20373;-78
2023/01/07 02:45:10;;;;;;;26.85;20.08;;;10.40;99.90;;;;;;5114507;27;20054;-79
2023/01/07 02:48:04;;;;;;;30.85;21.23;;;10.50;99.90;;;;;;5133050;27;20135;-81
2023/01/07 02:50:50;;;;;;;25.92;19.70;;;10.50;99.90;;;;;;5118896;27;20051;-79
2023/01/07 02:53:37;;;;;;;29.83;20.40;;;10.50;99.90;;;;;;5133971;27;20039;-80
2023/01/07 02:56:47;;;;;;;30.25;20.05;;;10.50;99.90;;;;;;5132612;27;20043;-81
2023/01/07 02:59:41;;;;;;;30.60;21.65;;;10.50;99.90;;;;;;5132192;27;20043;-80
2023/01/07 03:02:41;;;;;;;30.02;21.20;;;10.50;99.90;;;;;;5133243;27;20047;-85
2023/01/07 03:05:49;;;;;;;30.98;21.40;;;10.40;99.90;;;;;;5137392;27;20050;-78
2023/01/07 03:08:48;;;;;;;30.83;20.48;;;10.50;99.90;;;;;;5140124;27;20054;-81
2023/01/07 03:12:07;;;;;;;31.05;22.10;;;10.50;99.90;;;;;;5133438;27;20047;-82
2023/01/07 03:15:10;;;;;;;30.20;21.95;;;10.40;99.90;;;;;;5115029;27;20149;-79
2023/01/07 03:18:05;;;;;;;29.48;21.92;;;10.40;99.90;;;;;;5133430;27;20124;-80
2023/01/07 03:20:56;;;;;;;30.50;21.77;;;10.40;99.90;;;;;;5132039;27;20047;-81
2023/01/07 03:23:50;;;;;;;29.83;20.70;;;10.40;99.90;;;;;;5115142;27;20063;-80
2023/01/07 03:26:43;;;;;;;27.25;20.42;;;10.40;99.90;;;;;;5132512;27;20035;-81
2023/01/07 03:29:31;;;;;;;27.35;19.80;;;10.40;99.90;;;;;;5132425;27;20083;-81
2023/01/07 03:32:30;;;;;;;26.58;19.80;;;10.40;99.90;;;;;;5132043;27;20051;-80
2023/01/07 03:35:19;;;;;;;24.48;18.98;;;10.40;99.90;;;;;;5114288;27;20399;-79
2023/01/07 03:38:07;;;;;;;26.40;18.60;;;10.40;99.90;;;;;;5132550;27;20043;-81
2023/01/07 03:40:54;;;;;;;23.48;17.88;;;10.40;99.90;;;;;;5132542;27;20185;-79
2023/01/07 03:43:40;;;;;;;24.55;16.95;;;10.40;99.90;;;;;;5133600;27;20059;-79
2023/01/07 03:46:27;;;;;;;25.35;17.73;;;10.40;99.90;;;;;;5124752;27;20681;-81
2023/01/07 03:49:13;;;;;;;24.40;17.55;;;10.40;99.90;;;;;;5114439;27;20042;-81
2023/01/07 03:51:59;;;;;;;22.48;16.75;;;10.40;99.90;;;;;;5113532;27;20407;-79
2023/01/07 03:54:45;;;;;;;23.23;17.17;;;10.50;99.90;;;;;;5131550;27;20105;-80
2023/01/07 03:57:32;;;;;;;23.60;16.17;;;10.50;99.90;;;;;;5114236;27;20145;-79
2023/01/07 04:00:18;;;;;;;26.15;17.10;;;10.40;99.90;;;;;;5131122;27;20383;-80
2023/01/07 04:03:05;;;;;;;23.95;16.10;;;10.40;99.90;;;;;;5114555;27;20415;-79
2023/01/07 04:05:51;;;;;;;20.00;14.77;;;10.40;99.90;;;;;;5113700;27;20062;-79
2023/01/07 04:08:37;;;;;;;21.10;15.65;;;10.40;99.90;;;;;;5130708;27;20503;-79
2023/01/07 04:11:23;;;;;;;22.45;15.75;;;10.40;99.90;;;;;;5099578;27;20053;-80
2023/01/07 04:14:10;;;;;;;22.33;15.25;;;10.40;99.90;;;;;;5131833;27;20089;-79
2023/01/07 04:16:56;;;;;;;22.15;15.50;;;10.50;99.90;;;;;;5131040;27;20043;-80
2023/01/07 04:19:42;;;;;;;23.67;15.85;;;10.50;99.90;;;;;;5131294;27;20063;-80
2023/01/07 04:22:29;;;;;;;27.30;16.40;;;10.50;99.90;;;;;;5119253;27;20051;-79
2023/01/07 04:25:15;;;;;;;22.73;15.20;;;10.50;99.90;;;;;;5141541;27;20119;-80
2023/01/07 04:28:01;;;;;;;20.38;15.35;;;10.50;99.90;;;;;;5100091;27;20491;-79
2023/01/07 04:30:47;;;;;;;21.80;15.52;;;10.40;99.90;;;;;;5132116;27;20490;-80
2023/01/07 04:33:34;;;;;;;23.38;16.30;;;10.40;99.90;;;;;;5131119;27;20084;-78
2023/01/07 04:36:21;;;;;;;20.15;15.27;;;10.30;99.90;;;;;;5131922;27;20387;-81
2023/01/07 04:39:07;;;;;;;23.20;16.92;;;10.30;99.90;;;;;;5131141;27;20087;-79
2023/01/07 04:41:53;;;;;;;20.95;15.68;;;10.30;99.90;;;;;;5099136;27;20513;-79
2023/01/07 04:44:39;;;;;;;26.35;16.75;;;10.30;99.90;;;;;;5130270;27;20047;-80
2023/01/07 04:47:25;;;;;;;23.30;15.55;;;10.20;99.90;;;;;;5130665;27;20047;-80
2023/01/07 04:50:12;;;;;;;21.33;16.08;;;10.20;99.90;;;;;;5113542;27;20135;-79
2023/01/07 04:52:58;;;;;;;21.90;15.70;;;10.20;99.90;;;;;;5130568;27;20130;-80
2023/01/07 04:55:44;;;;;;;25.63;17.65;;;10.20;99.90;;;;;;5130392;27;20777;-80
2023/01/07 04:58:31;;;;;;;25.23;17.38;;;10.10;99.90;;;;;;5113377;27;20082;-78
2023/01/07 05:01:17;;;;;;;23.92;16.73;;;10.20;99.90;;;;;;5138688;27;20170;-82
2023/01/07 05:04:04;;;;;;;28.73;17.50;;;10.10;99.90;;;;;;5130034;27;20495;-80
2023/01/07 05:06:50;;;;;;;26.15;17.98;;;10.10;99.90;;;;;;5130959;27;20053;-80
2023/01/07 05:09:36;;;;;;;28.77;17.90;;;10.10;99.90;;;;;;5130847;27;20054;-80
2023/01/07 05:12:22;;;;;;;28.98;18.35;;;10.00;99.90;;;;;;5129867;27;20498;-79
2023/01/07 05:15:09;;;;;;;28.20;18.75;;;10.10;99.90;;;;;;5130966;27;20054;-79
2023/01/07 05:17:55;;;;;;;26.80;18.45;;;10.00;99.90;;;;;;5111248;28;20054;-80
2023/01/07 05:20:41;;;;;;;27.88;18.48;;;10.00;99.90;;;;;;5129223;27;20058;-83
2023/01/07 05:23:27;;;;;;;29.88;18.52;;;10.00;99.90;;;;;;5129920;27;20084;-79
2023/01/07 05:26:14;;;;;;;35.20;19.70;;;9.90;99.90;;;;;;5129829;27;20083;-82
2023/01/07 05:29:00;;;;;;;32.13;20.25;;;10.00;99.90;;;;;;5111422;27;20137;-79
2023/01/07 05:31:46;;;;;;;31.08;18.88;;;9.90;99.90;;;;;;5131093;27;20055;-79
2023/01/07 05:34:32;;;;;;;31.52;19.75;;;9.90;99.90;;;;;;5119809;28;20047;-78
2023/01/07 05:37:18;;;;;;;29.27;19.30;;;10.00;99.90;;;;;;5134449;28;20058;-80
2023/01/07 05:40:05;;;;;;;28.33;18.83;;;10.00;99.90;;;;;;5110991;28;20153;-79
2023/01/07 05:42:51;;;;;;;30.02;19.10;;;10.00;99.90;;;;;;5112150;28;20055;-79
2023/01/07 05:45:38;;;;;;;27.83;18.08;;;10.00;99.90;;;;;;5110948;28;20078;-80
2023/01/07 05:48:24;;;;;;;28.63;17.90;;;10.00;99.90;;;;;;5110614;28;20047;-78
2023/01/07 05:51:10;;;;;;;30.35;19.25;;;9.90;99.90;;;;;;5129360;28;20150;-78
2023/01/07 05:53:56;;;;;;;30.13;18.95;;;9.90;99.90;;;;;;5129122;28;20054;-79
2023/01/07 05:56:42;;;;;;;28.55;18.98;;;9.90;99.90;;;;;;5110635;28;20142;-81
2023/01/07 05:59:29;;;;;;;29.83;18.70;;;9.90;99.90;;;;;;5111926;28;20054;-80
2023/01/07 06:02:16;;;;;;;30.85;18.83;;;9.90;99.90;;;;;;5114529;28;20048;-80
2023/01/07 06:05:03;;;;;;;30.48;18.85;;;9.90;99.90;;;;;;5129438;28;20051;-79
2023/01/07 06:07:50;;;;;;;28.58;18.60;;;9.90;99.90;;;;;;5129266;28;20134;-79
2023/01/07 06:10:36;;;;;;;28.63;18.67;;;9.90;99.90;;;;;;5130562;28;20047;-79
2023/01/07 06:13:22;;;;;;;30.15;17.52;;;9.90;99.90;;;;;;5129876;27;20043;-79
2023/01/07 06:16:11;;;;;;;31.42;19.15;;;9.90;99.90;;;;;;5115256;27;20059;-79
2023/01/07 06:18:57;;;;;;;28.23;16.70;;;9.80;99.90;;;;;;5141314;27;20054;-83
2023/01/07 06:21:43;;;;;;;28.30;18.17;;;9.80;99.90;;;;;;5133763;27;20040;-82
2023/01/07 06:24:29;;;;;;;26.55;16.92;;;9.80;99.90;;;;;;5114765;27;20047;-81
2023/01/07 06:27:15;;;;;;;24.85;16.95;;;9.80;99.90;;;;;;5116178;27;20150;-81
2023/01/07 06:30:03;;;;;;;26.27;16.85;;;9.80;99.90;;;;;;5133123;27;20498;-82
2023/01/07 06:32:50;;;;;;;28.38;17.80;;;9.70;99.90;;;;;;5114909;27;20055;-81
2023/01/07 06:35:36;;;;;;;29.45;17.35;;;9.70;99.90;;;;;;5114849;27;20059;-81
2023/01/07 06:38:22;;;;;;;26.38;17.63;;;9.70;99.90;;;;;;5133845;27;20530;-85
2023/01/07 06:41:09;;;;;;;29.55;17.65;;;9.70;99.90;;;;;;5115647;27;20462;-81
2023/01/07 06:43:55;;;;;;;26.52;16.17;;;9.60;99.90;;;;;;5133770;27;20055;-83
2023/01/07 06:46:41;;;;;;;24.55;16.90;;;9.60;99.90;;;;;;5115319;27;20047;-80
2023/01/07 06:49:27;;;;;;;31.67;17.92;;;9.60;99.90;;;;;;5105959;27;20043;-80
2023/01/07 06:52:14;;;;;;;24.52;15.18;;;9.60;99.90;;;;;;5113215;28;20070;-81
2023/01/07 06:55:00;;;;;;;25.35;17.20;;;9.50;99.90;;;;;;5107286;28;20051;-83
2023/01/07 06:57:46;;;;;;;25.90;16.73;;;9.50;99.90;;;;;;5115289;28;20456;-86
2023/01/07 07:00:32;;;;;;;21.60;15.95;;;9.50;99.90;;;;;;5119283;28;20059;-81
2023/01/07 07:03:18;;;;;;;22.15;15.43;;;9.50;99.90;;;;;;5117054;28;20129;-80
2023/01/07 07:06:04;;;;;;;25.60;15.88;;;9.50;99.90;;;;;;5114675;27;20040;-82
2023/01/07 07:08:51;;;;;;;23.45;14.90;;;9.50;99.90;;;;;;5132687;27;20054;-81
2023/01/07 07:11:37;;;;;;;22.92;15.10;;;9.50;99.90;;;;;;5113769;27;20065;-83
2023/01/07 07:14:23;;;;;;;26.75;15.15;;;9.50;99.90;;;;;;5132170;27;20505;-80
2023/01/07 07:17:09;;;;;;;23.25;15.25;;;9.50;99.90;;;;;;5113220;27;20051;-84
2023/01/07 07:19:55;;;;;;;19.52;13.32;;;9.50;99.90;;;;;;5114198;27;20059;-82
2023/01/07 07:22:45;;;;;;;22.25;14.23;;;9.50;99.90;;;;;;5132291;27;20058;-82
2023/01/07 07:25:31;;;;;;;22.90;14.73;;;9.50;99.90;;;;;;5132171;27;20153;-81
2023/01/07 07:28:18;;;;;;;19.63;14.10;;;9.60;99.90;;;;;;5114168;27;20055;-80
2023/01/07 07:31:04;;;;;;;20.20;14.45;;;9.60;99.90;;;;;;5114553;27;20410;-81
2023/01/07 07:33:50;;;;;;;18.77;13.48;;;9.60;99.90;;;;;;5113962;27;20054;-81
2023/01/07 07:36:36;;;;;;;22.60;13.73;;;9.60;99.90;;;;;;5132047;27;20062;-83
2023/01/07 07:39:22;;;;;;;23.95;13.93;;;9.60;99.90;;;;;;5113559;27;20047;-79
2023/01/07 07:42:08;;;;;;;20.15;13.82;;;9.50;99.90;;;;;;5114303;27;20104;-84
2023/01/07 07:44:55;;;;;;;24.65;12.82;;;9.60;99.90;;;;;;5114935;27;20058;-78
2023/01/07 07:47:44;;;;;;;19.73;13.63;;;9.60;99.90;;;;;;5119611;27;20073;-80
2023/01/07 07:50:30;;;;;;;22.10;13.05;;;9.50;99.90;;;;;;5114236;27;20047;-79
2023/01/07 07:53:17;;;;;;;18.85;13.10;;;9.60;99.90;;;;;;5131516;27;20111;-80
2023/01/07 07:56:06;;;;;;;19.63;13.20;;;9.50;99.90;;;;;;5131276;27;20054;-82
2023/01/07 07:58:53;;;;;;;20.67;13.30;;;9.50;99.90;;;;;;5132576;27;20051;-80
2023/01/07 08:01:39;;;;;;;17.63;12.85;;;9.50;99.90;;;;;;5114069;27;20051;-80
2023/01/07 08:04:27;;;;;;;22.65;12.98;;;9.50;99.90;;;;;;5131102;27;20499;-86
2023/01/07 08:07:13;;;;;;;23.92;13.55;;;9.50;99.90;;;;;;5116961;27;20489;-86
2023/01/07 08:09:59;;;;;;;24.00;13.80;;;9.50;99.90;;;;;;5113749;27;20133;-79
2023/01/07 08:12:46;;;;;;;21.80;12.73;;;9.50;99.90;;;;;;5131956;27;20057;-81
2023/01/07 08:15:32;;;;;;;18.02;12.32;;;9.50;99.90;;;;;;5135627;27;20051;-87
2023/01/07 08:18:18;;;;;;;19.73;12.32;;;9.40;99.90;;;;;;5140339;27;20047;-80
2023/01/07 08:21:04;;;;;;;18.35;11.63;;;9.40;99.90;;;;;;5113537;27;20125;-84
2023/01/07 08:23:51;;;;;;;17.92;11.68;;;9.40;99.90;;;;;;5114194;27;20486;-84
2023/01/07 08:26:37;;;;;;;18.52;11.43;;;9.30;99.90;;;;;;5113862;27;20046;-85
2023/01/07 08:29:23;;;;;;;16.83;11.05;;;9.40;99.90;;;;;;5129785;27;20543;-83
2023/01/07 08:32:09;;;;;;;16.40;12.15;;;9.40;99.90;;;;;;5112638;27;20054;-84
2023/01/07 08:34:56;;;;;;;15.95;10.85;;;9.40;99.90;;;;;;5112516;27;20522;-85
2023/01/07 08:37:43;;;;;;;18.52;11.27;;;9.40;99.90;;;;;;5112272;27;20142;-83
2023/01/07 08:40:29;;;;;;;19.08;10.77;;;9.50;99.90;;;;;;5130789;27;20081;-77
2023/01/07 08:43:16;;;;;;;16.23;10.35;;;9.50;99.90;;;;;;5112773;27;20051;-79
2023/01/07 08:46:02;;;;;;;15.48;10.13;;;9.60;99.90;;;;;;5116483;27;20491;-78
2023/01/07 08:48:48;;;;;;;15.40;8.98;;;9.60;99.90;;;;;;5138763;27;20530;-80
2023/01/07 08:51:34;;;;;;;17.20;9.40;;;9.60;99.90;;;;;;5130349;27;20112;-80
2023/01/07 08:54:20;;;;;;;15.27;9.07;;;9.60;99.90;;;;;;5130611;27;20039;-80
2023/01/07 08:57:06;;;;;;;18.73;11.45;;;9.60;99.90;;;;;;5129393;27;20054;-84
2023/01/07 08:59:52;;;;;;;13.70;8.55;;;9.60;99.90;;;;;;5130675;27;20058;-81
2023/01/07 09:02:39;;;;;;;14.70;8.05;;;9.60;99.90;;;;;;5111772;27;20064;-79
2023/01/07 09:05:25;;;;;;;19.25;8.27;;;9.60;99.90;;;;;;5130148;27;20444;-80
2023/01/07 09:08:11;;;;;;;13.80;7.35;;;9.60;99.90;;;;;;5130001;27;20521;-78
2023/01/07 09:10:57;;;;;;;11.77;7.20;;;9.60;99.90;;;;;;5111640;27;20483;-80
2023/01/07 09:13:43;;;;;;;14.15;6.95;;;9.60;99.90;;;;;;5111387;27;20051;-80
2023/01/07 09:16:29;;;;;;;13.88;7.05;;;9.70;99.90;;;;;;5110817;27;20047;-80
2023/01/07 09:19:16;;;;;;;13.10;6.60;;;9.70;99.90;;;;;;5111949;27;20043;-79
2023/01/07 09:22:02;;;;;;;10.90;6.32;;;9.80;99.90;;;;;;5116319;27;20078;-84
2023/01/07 09:24:48;;;;;;;11.57;6.05;;;9.90;99.90;;;;;;5130053;27;20039;-80
2023/01/07 09:27:34;;;;;;;9.75;6.25;;;9.90;99.90;;;;;;5132156;27;20047;-84
2023/01/07 09:30:20;;;;;;;13.98;7.45;;;9.90;99.90;;;;;;5129114;27;20083;-81
2023/01/07 09:33:06;;;;;;;11.15;5.50;;;10.00;99.90;;;;;;5097342;27;20047;-79
2023/01/07 09:35:53;;;;;;;10.93;5.15;;;10.10;99.90;;;;;;5111146;28;20050;-79
2023/01/07 09:38:39;;;;;;;10.43;4.88;;;10.10;99.90;;;;;;5110776;28;20054;-81
2023/01/07 09:41:53;;;;;;;7.93;4.80;;;10.10;99.90;;;;;;5130409;28;20059;-83
2023/01/07 09:44:39;;;;;;;9.52;5.53;;;10.10;99.90;;;;;;5112908;28;20134;-79
2023/01/07 09:47:28;;;;;;;10.85;4.43;;;10.10;99.90;;;;;;5112933;28;20074;-81
2023/01/07 09:50:36;;;;;;;8.50;4.78;;;10.00;99.90;;;;;;5114216;27;20748;-80
2023/01/07 09:53:27;;;;;;;6.70;4.20;;;10.00;99.90;;;;;;5134074;27;20058;-81
2023/01/07 09:56:23;;;;;;;10.10;4.43;;;10.00;99.90;;;;;;5120714;27;20068;-80
2023/01/07 09:59:10;;;;;;;10.50;4.47;;;10.00;99.90;;;;;;5120921;27;20047;-84
2023/01/07 10:02:11;;;;;;;12.20;4.30;;;10.00;99.90;;;;;;5120971;27;20054;-80
2023/01/07 10:05:01;;;;;;;7.57;3.97;;;10.00;99.90;;;;;;5134023;27;20039;-80
2023/01/07 10:08:10;;;;;;;9.45;3.70;;;10.20;99.90;;;;;;5133512;27;20055;-80
2023/01/07 10:11:19;;;;;;;7.75;3.80;;;10.30;99.90;;;;;;5134883;27;20486;-80
2023/01/07 10:14:34;;;;;;;11.02;4.43;;;10.40;99.90;;;;;;5110177;27;20067;-79
2023/01/07 10:17:38;;;;;;;8.57;3.30;;;10.70;99.90;;;;;;5134855;27;20082;-81
2023/01/07 10:20:30;;;;;;;10.88;3.70;;;10.80;99.90;;;;;;5114778;27;20473;-79
2023/01/07 10:23:26;;;;;;;6.00;3.22;;;10.80;99.90;;;;;;5133729;27;20430;-80
2023/01/07 10:26:29;;;;;;;10.13;4.07;;;10.80;99.90;;;;;;5107517;27;20151;-82
2023/01/07 10:29:21;;;;;;;5.38;2.92;;;10.80;99.90;;;;;;5104205;27;20051;-82
2023/01/07 10:32:15;;;;;;;5.95;3.10;;;10.80;99.90;;;;;;5115319;28;20063;-79
2023/01/07 10:35:01;;;;;;;6.60;3.13;;;11.00;99.90;;;;;;5114816;28;20102;-81
2023/01/07 10:37:47;;;;;;;8.38;3.13;;;11.20;99.90;;;;;;5117844;28;20056;-81
2023/01/07 10:40:46;;;;;;;5.22;2.90;;;11.30;99.90;;;;;;5102183;28;20055;-81
2023/01/07 10:43:59;;;;;;;6.50;2.78;;;11.30;99.90;;;;;;5124534;28;20048;-85
2023/01/07 10:46:55;;;;;;;4.13;2.30;;;11.30;99.90;;;;;;5101569;28;20086;-80
2023/01/07 10:49:49;;;;;;;4.05;2.30;;;11.10;99.90;;;;;;5115026;28;20097;-83
2023/01/07 10:53:13;;;;;;;5.63;2.38;;;10.90;99.90;;;;;;5114798;28;20402;-79
2023/01/07 10:55:59;;;;;;;5.90;2.50;;;10.80;99.90;;;;;;5115800;28;20161;-78
2023/01/07 10:58:48;;;;;;;4.53;2.47;;;10.70;99.90;;;;;;5101876;28;20039;-79
2023/01/07 11:01:37;;;;;;;9.02;3.15;;;10.70;99.90;;;;;;5101708;28;20112;-82
2023/01/07 11:04:24;;;;;;;4.22;2.13;;;10.60;99.90;;;;;;5101925;28;20111;-79
2023/01/07 11:07:14;;;;;;;3.95;2.08;;;10.70;99.90;;;;;;5117697;28;20048;-80
2023/01/07 11:10:03;;;;;;;4.38;2.25;;;10.70;99.90;;;;;;5113893;28;20398;-86
2023/01/07 11:12:53;;;;;;;3.92;2.08;;;10.70;99.90;;;;;;5096461;28;20054;-85
2023/01/07 11:15:44;;;;;;;4.95;2.08;;;10.70;99.90;;;;;;5116438;28;20510;-81
2023/01/07 11:18:50;;;;;;;4.65;2.28;;;10.70;99.90;;;;;;5117988;28;20109;-86
2023/01/07 11:21:51;;;;;;;3.25;1.80;;;10.70;99.90;;;;;;5113545;28;20047;-86
2023/01/07 11:24:37;;;;;;;4.28;2.22;;;10.80;99.90;;;;;;5114044;28;20074;-80
2023/01/07 11:27:30;;;;;;;3.80;1.60;;;11.10;99.90;;;;;;5121118;28;20044;-87
2023/01/07 11:30:27;;;;;;;4.72;1.75;;;11.80;99.90;;;;;;5124473;28;20408;-82
2023/01/07 11:33:26;;;;;;;3.55;1.50;;;12.40;99.90;;;;;;5123598;28;20063;-80
2023/01/07 11:36:12;;;;;;;5.55;1.67;;;12.70;99.90;;;;;;5113433;28;20134;-84
2023/01/07 11:39:09;;;;;;;6.03;1.83;;;12.60;99.90;;;;;;5112627;28;20051;-84
2023/01/07 11:45:52;;;;;;;3.13;1.35;;;12.60;99.90;;;;;;5093533;28;20048;-87
2023/01/07 11:48:51;;;;;;;4.28;1.40;;;13.30;99.90;;;;;;5119998;28;20054;-85
2023/01/07 11:51:40;;;;;;;3.75;1.42;;;13.80;99.90;;;;;;5111491;28;20056;-80
2023/01/07 11:54:31;;;;;;;2.97;1.38;;;14.00;99.90;;;;;;5094084;28;20065;-85
2023/01/07 11:57:25;;;;;;;5.10;1.58;;;13.60;99.90;;;;;;5093419;28;20414;-87
2023/01/07 12:00:16;;;;;;;4.03;1.95;;;13.00;99.90;;;;;;5096971;28;20065;-84
2023/01/07 12:03:13;;;;;;;3.58;1.20;;;12.40;99.90;;;;;;5095336;28;20043;-85
2023/01/07 12:06:08;;;;;;;4.30;1.40;;;12.00;99.90;;;;;;5111131;28;20044;-80
2023/01/07 12:09:09;;;;;;;4.53;1.33;;;11.70;99.90;;;;;;5094518;28;20487;-79
2023/01/07 12:11:58;;;;;;;4.40;1.45;;;11.50;99.90;;;;;;5101942;28;20048;-86
2023/01/07 12:14:46;;;;;;;4.00;1.13;;;11.40;99.90;;;;;;5112583;28;20039;-87
2023/01/07 12:17:34;;;;;;;2.75;1.30;;;11.30;99.90;;;;;;5122699;28;20059;-78
2023/01/07 12:21:25;;;;;;;5.43;1.17;;;11.30;99.90;;;;;;5111351;28;20142;-82
2023/01/07 12:24:49;;;;;;;2.35;0.90;;;11.20;99.90;;;;;;5074274;28;20138;-82
2023/01/07 12:28:19;;;;;;;3.55;1.35;;;11.30;99.90;;;;;;5112749;28;20044;-86
2023/01/07 12:31:26;;;;;;;4.15;2.05;;;11.40;99.90;;;;;;5056027;28;20048;-87
2023/01/07 12:34:15;;;;;;;4.13;1.23;;;11.60;99.90;;;;;;5113989;28;20048;-81
2023/01/07 12:37:09;;;;;;;6.60;1.65;;;11.70;99.90;;;;;;5110989;28;20051;-83
2023/01/07 12:40:10;;;;;;;5.28;1.58;;;11.70;99.90;;;;;;5092320;28;20066;-79
2023/01/07 12:43:20;;;;;;;2.95;1.20;;;11.80;99.90;;;;;;5092289;28;20059;-80
2023/01/07 12:46:11;;;;;;;3.28;1.13;;;11.80;99.90;;;;;;5090437;28;20419;-84
2023/01/07 12:49:09;;;;;;;4.13;1.42;;;12.20;99.90;;;;;;5123277;28;20043;-84
2023/01/07 12:52:31;;;;;;;4.18;1.20;;;12.70;99.90;;;;;;5113686;28;20141;-79
2023/01/07 12:55:25;;;;;;;4.55;1.23;;;13.00;99.90;;;;;;5068691;28;20039;-79
2023/01/07 12:58:36;;;;;;;6.03;2.20;;;13.30;99.90;;;;;;5110834;28;20043;-81
2023/01/07 13:01:33;;;;;;;3.65;1.33;;;13.30;99.90;;;;;;5109047;28;20047;-80
2023/01/07 13:05:00;;;;;;;6.00;1.73;;;13.20;99.90;;;;;;5110720;28;20071;-87
2023/01/07 13:07:58;;;;;;;3.15;1.25;;;13.20;99.90;;;;;;5096133;28;20047;-79
2023/01/07 13:10:57;;;;;;;3.45;1.20;;;13.10;99.90;;;;;;5092063;28;20047;-79
2023/01/07 13:13:48;;;;;;;3.33;1.08;;;12.90;99.90;;;;;;5110371;28;20083;-86
2023/01/07 13:16:34;;;;;;;2.03;1.33;;;12.80;99.90;;;;;;5091194;28;20048;-83
2023/01/07 13:19:20;;;;;;;3.47;1.33;;;12.70;99.90;;;;;;5110168;28;20049;-81
2023/01/07 13:22:17;;;;;;;3.13;0.95;;;12.60;99.90;;;;;;5111038;28;20052;-88
2023/01/07 13:25:34;;;;;;;3.63;1.20;;;12.50;99.90;;;;;;5099801;28;20043;-80
2023/01/07 13:28:35;;;;;;;3.05;1.23;;;12.20;99.90;;;;;;5080475;28;20047;-81
2023/01/07 13:31:54;;;;;;;4.22;1.23;;;12.00;99.90;;;;;;5091414;28;20060;-82
2023/01/07 13:35:03;;;;;;;2.90;1.13;;;11.90;99.90;;;;;;5077145;28;20047;-82
2023/01/07 13:38:07;;;;;;;3.03;1.35;;;11.80;99.90;;;;;;5096359;28;20406;-83
2023/01/07 13:41:12;;;;;;;8.27;1.80;;;11.70;99.90;;;;;;5105199;28;20403;-80
2023/01/07 13:44:25;;;;;;;3.55;1.58;;;11.70;99.90;;;;;;5110580;28;20049;-80
2023/01/07 13:47:16;;;;;;;2.63;1.10;;;11.70;99.90;;;;;;5113964;28;20044;-86
2023/01/07 13:50:03;;;;;;;2.58;1.13;;;11.70;99.90;;;;;;5113453;28;20071;-85
2023/01/07 13:53:15;;;;;;;4.13;1.10;;;11.70;99.90;;;;;;5115124;28;20394;-81
2023/01/07 13:56:17;;;;;;;4.13;1.13;;;11.60;99.90;;;;;;5068410;28;20402;-83
2023/01/07 13:59:03;;;;;;;3.90;1.48;;;11.40;99.90;;;;;;5100142;28;20071;-82
2023/01/07 14:02:15;;;;;;;2.85;1.10;;;11.30;99.90;;;;;;5095716;28;20079;-82
2023/01/07 14:05:04;;;;;;;2.85;1.40;;;11.20;99.90;;;;;;5077618;28;20636;-87
2023/01/07 14:07:54;;;;;;;4.00;1.48;;;11.10;99.90;;;;;;5095206;28;20081;-85
2023/01/07 14:10:51;;;;;;;7.00;1.42;;;11.00;99.90;;;;;;5094806;28;20158;-85
2023/01/07 14:13:58;;;;;;;11.27;1.40;;;10.90;99.90;;;;;;5081970;28;20135;-82
2023/01/07 14:16:51;;;;;;;2.78;1.17;;;10.80;99.90;;;;;;5109651;28;20548;-83
2023/01/07 14:19:55;;;;;;;4.63;1.33;;;10.70;99.90;;;;;;5109739;28;20384;-81
2023/01/07 14:23:19;;;;;;;5.00;1.42;;;10.60;99.90;;;;;;5092425;28;20514;-86
2023/01/07 14:27:01;;;;;;;4.32;1.58;;;10.50;99.90;;;;;;5105809;28;20142;-81
2023/01/07 14:29:49;;;;;;;4.00;1.45;;;10.50;99.90;;;;;;5090747;28;20059;-80
2023/01/07 14:32:36;;;;;;;7.40;1.63;;;10.40;99.90;;;;;;5107988;28;20058;-81
2023/01/07 14:35:35;;;;;;;5.32;1.50;;;10.40;99.90;;;;;;5097341;28;20090;-82
2023/01/07 14:38:33;;;;;;;2.92;1.40;;;10.30;99.90;;;;;;5119224;28;20043;-82
2023/01/07 14:41:20;;;;;;;3.70;2.10;;;10.30;99.90;;;;;;5113024;28;20134;-82
2023/01/07 14:44:26;;;;;;;4.10;1.60;;;10.20;99.90;;;;;;5112037;28;20761;-81
2023/01/07 14:47:33;;;;;;;4.32;1.42;;;10.20;99.90;;;;;;5111071;28;20168;-80
2023/01/07 14:50:33;;;;;;;3.53;1.25;;;10.10;99.90;;;;;;5112843;28;20126;-84
2023/01/07 14:53:28;;;;;;;2.72;1.55;;;10.10;99.90;;;;;;5116398;28;20050;-82